sensor_id;sensor_type;location;lat;lon;timestamp;temperature;humidity
13336;DHT22;6737;51.480;11.962;2023-06-22T00:02:14;21.90;99.90
13336;DHT22;6737;51.480;11.962;2023-06-22T00:04:39;21.90;99.90
13336;DHT22;6737;51.480;11.962;2023-06-22T00:07:05;21.90;99.90
13336;DHT22;6737;51.480;11.962;2023-06-22T00:09:31;21.90;99.90
13336;DHT22;6737;51.480;11.962;2023-06-22T00:11:58;21.90;99.90
13336;DHT22;6737;51.480;11.962;2023-06-22T00:14:23;21.90;99.90
13336;DHT22;6737;51.480;11.962;2023-06-22T00:16:49;21.90;99.90
13336;DHT22;6737;51.480;11.962;2023-06-22T00:19:21;21.90;99.90
13336;DHT22;6737;51.480;11.962;2023-06-22T00:21:47;21.80;99.90
13336;DHT22;6737;51.480;11.962;2023-06-22T00:24:21;21.80;99.90
13336;DHT22;6737;51.480;11.962;2023-06-22T00:26:48;21.80;99.90
13336;DHT22;6737;51.480;11.962;2023-06-22T00:29:14;21.80;99.90
13336;DHT22;6737;51.480;11.962;2023-06-22T00:31:40;21.80;99.90
13336;DHT22;6737;51.480;11.962;2023-06-22T00:34:06;21.80;99.90
13336;DHT22;6737;51.480;11.962;2023-06-22T00:36:35;21.80;99.90
13336;DHT22;6737;51.480;11.962;2023-06-22T00:39:01;21.80;99.90
13336;DHT22;6737;51.480;11.962;2023-06-22T00:41:27;21.80;99.90
13336;DHT22;6737;51.480;11.962;2023-06-22T00:43:56;21.80;99.90
13336;DHT22;6737;51.480;11.962;2023-06-22T00:46:22;21.80;99.90
13336;DHT22;6737;51.480;11.962;2023-06-22T00:48:48;21.80;99.90
13336;DHT22;6737;51.480;11.962;2023-06-22T00:51:16;21.80;99.90
13336;DHT22;6737;51.480;11.962;2023-06-22T00:53:42;21.80;99.90
13336;DHT22;6737;51.480;11.962;2023-06-22T00:56:08;21.80;99.90
13336;DHT22;6737;51.480;11.962;2023-06-22T00:58:38;21.80;99.90
13336;DHT22;6737;51.480;11.962;2023-06-22T01:01:07;21.80;99.90
13336;DHT22;6737;51.480;11.962;2023-06-22T01:03:33;21.80;99.90
13336;DHT22;6737;51.480;11.962;2023-06-22T01:06:08;21.80;99.90
13336;DHT22;6737;51.480;11.962;2023-06-22T01:08:51;21.80;99.90
13336;DHT22;6737;51.480;11.962;2023-06-22T01:14:00;21.70;99.90
13336;DHT22;6737;51.480;11.962;2023-06-22T01:16:33;21.70;99.90
13336;DHT22;6737;51.480;11.962;2023-06-22T01:19:05;21.60;99.90
13336;DHT22;6737;51.480;11.962;2023-06-22T01:21:33;21.60;99.90
13336;DHT22;6737;51.480;11.962;2023-06-22T01:29:15;21.50;99.90
13336;DHT22;6737;51.480;11.962;2023-06-22T01:31:44;21.50;99.90
13336;DHT22;6737;51.480;11.962;2023-06-22T01:34:11;21.50;99.90
13336;DHT22;6737;51.480;11.962;2023-06-22T01:36:38;21.50;99.90
13336;DHT22;6737;51.480;11.962;2023-06-22T01:39:05;21.50;99.90
13336;DHT22;6737;51.480;11.962;2023-06-22T01:41:35;21.50;99.90
13336;DHT22;6737;51.480;11.962;2023-06-22T01:44:05;21.60;99.90
13336;DHT22;6737;51.480;11.962;2023-06-22T01:46:33;21.60;99.90
13336;DHT22;6737;51.480;11.962;2023-06-22T01:48:59;21.60;99.90
13336;DHT22;6737;51.480;11.962;2023-06-22T01:51:25;21.60;99.90
13336;DHT22;6737;51.480;11.962;2023-06-22T01:53:51;21.60;99.90
13336;DHT22;6737;51.480;11.962;2023-06-22T01:56:17;21.50;99.90
13336;DHT22;6737;51.480;11.962;2023-06-22T02:02:01;21.50;99.90
13336;DHT22;6737;51.480;11.962;2023-06-22T02:04:33;21.50;99.90
13336;DHT22;6737;51.480;11.962;2023-06-22T02:07:00;21.50;99.90
13336;DHT22;6737;51.480;11.962;2023-06-22T02:09:30;21.50;99.90
13336;DHT22;6737;51.480;11.962;2023-06-22T02:11:57;21.50;99.90
13336;DHT22;6737;51.480;11.962;2023-06-22T02:14:24;21.50;99.90
13336;DHT22;6737;51.480;11.962;2023-06-22T02:16:51;21.50;99.90
13336;DHT22;6737;51.480;11.962;2023-06-22T02:19:17;21.40;99.90
13336;DHT22;6737;51.480;11.962;2023-06-22T02:21:48;21.40;99.90
13336;DHT22;6737;51.480;11.962;2023-06-22T02:24:14;21.30;99.90
13336;DHT22;6737;51.480;11.962;2023-06-22T02:26:39;21.30;99.90
13336;DHT22;6737;51.480;11.962;2023-06-22T02:29:08;21.30;99.90
13336;DHT22;6737;51.480;11.962;2023-06-22T02:31:34;21.30;99.90
13336;DHT22;6737;51.480;11.962;2023-06-22T02:33:59;21.30;99.90
13336;DHT22;6737;51.480;11.962;2023-06-22T02:36:26;21.30;99.90
13336;DHT22;6737;51.480;11.962;2023-06-22T02:38:54;21.20;99.90
13336;DHT22;6737;51.480;11.962;2023-06-22T02:41:21;21.20;99.90
13336;DHT22;6737;51.480;11.962;2023-06-22T02:43:47;21.20;99.90
13336;DHT22;6737;51.480;11.962;2023-06-22T02:46:13;21.10;99.90
13336;DHT22;6737;51.480;11.962;2023-06-22T02:48:40;21.10;99.90
13336;DHT22;6737;51.480;11.962;2023-06-22T02:51:06;21.10;99.90
13336;DHT22;6737;51.480;11.962;2023-06-22T02:53:32;21.10;99.90
13336;DHT22;6737;51.480;11.962;2023-06-22T02:55:58;21.10;99.90
13336;DHT22;6737;51.480;11.962;2023-06-22T02:58:24;21.00;99.90
13336;DHT22;6737;51.480;11.962;2023-06-22T03:00:50;21.10;99.90
13336;DHT22;6737;51.480;11.962;2023-06-22T03:03:19;21.00;99.90
13336;DHT22;6737;51.480;11.962;2023-06-22T03:05:45;21.00;99.90
13336;DHT22;6737;51.480;11.962;2023-06-22T03:08:11;21.00;99.90
13336;DHT22;6737;51.480;11.962;2023-06-22T03:10:37;21.00;99.90
13336;DHT22;6737;51.480;11.962;2023-06-22T03:13:04;20.90;99.90
13336;DHT22;6737;51.480;11.962;2023-06-22T03:15:30;20.90;99.90
13336;DHT22;6737;51.480;11.962;2023-06-22T03:17:56;21.00;99.90
13336;DHT22;6737;51.480;11.962;2023-06-22T03:20:22;21.00;99.90
13336;DHT22;6737;51.480;11.962;2023-06-22T03:22:48;21.00;99.90
13336;DHT22;6737;51.480;11.962;2023-06-22T03:25:14;21.00;99.90
13336;DHT22;6737;51.480;11.962;2023-06-22T03:27:43;21.00;99.90
13336;DHT22;6737;51.480;11.962;2023-06-22T03:30:12;20.90;99.90
13336;DHT22;6737;51.480;11.962;2023-06-22T03:32:37;21.00;99.90
13336;DHT22;6737;51.480;11.962;2023-06-22T03:35:03;21.00;99.90
13336;DHT22;6737;51.480;11.962;2023-06-22T03:37:31;21.00;99.90
13336;DHT22;6737;51.480;11.962;2023-06-22T03:39:57;21.00;99.90
13336;DHT22;6737;51.480;11.962;2023-06-22T03:42:23;21.00;99.90
13336;DHT22;6737;51.480;11.962;2023-06-22T03:44:49;21.00;99.90
13336;DHT22;6737;51.480;11.962;2023-06-22T03:47:14;21.00;99.90
13336;DHT22;6737;51.480;11.962;2023-06-22T03:49:40;21.00;99.90
13336;DHT22;6737;51.480;11.962;2023-06-22T03:52:06;21.00;99.90
13336;DHT22;6737;51.480;11.962;2023-06-22T03:54:32;20.90;99.90
13336;DHT22;6737;51.480;11.962;2023-06-22T03:56:58;21.00;99.90
13336;DHT22;6737;51.480;11.962;2023-06-22T03:59:25;21.00;99.90
13336;DHT22;6737;51.480;11.962;2023-06-22T04:01:51;21.10;99.90
13336;DHT22;6737;51.480;11.962;2023-06-22T04:04:19;21.10;99.90
13336;DHT22;6737;51.480;11.962;2023-06-22T04:06:45;21.10;99.90
13336;DHT22;6737;51.480;11.962;2023-06-22T04:09:11;21.10;99.90
13336;DHT22;6737;51.480;11.962;2023-06-22T04:11:37;21.20;99.90
13336;DHT22;6737;51.480;11.962;2023-06-22T04:14:03;21.30;99.90
13336;DHT22;6737;51.480;11.962;2023-06-22T04:16:30;21.30;99.90
13336;DHT22;6737;51.480;11.962;2023-06-22T04:18:56;21.30;99.90
13336;DHT22;6737;51.480;11.962;2023-06-22T04:21:21;21.40;99.90
13336;DHT22;6737;51.480;11.962;2023-06-22T04:23:47;21.40;99.90
13336;DHT22;6737;51.480;11.962;2023-06-22T04:26:14;21.40;99.90
13336;DHT22;6737;51.480;11.962;2023-06-22T04:28:40;21.40;99.90
13336;DHT22;6737;51.480;11.962;2023-06-22T04:31:06;21.50;99.90
13336;DHT22;6737;51.480;11.962;2023-06-22T04:33:32;21.50;99.90
13336;DHT22;6737;51.480;11.962;2023-06-22T04:35:58;21.50;99.90
13336;DHT22;6737;51.480;11.962;2023-06-22T04:38:26;21.50;99.90
13336;DHT22;6737;51.480;11.962;2023-06-22T04:40:52;21.50;99.90
13336;DHT22;6737;51.480;11.962;2023-06-22T04:43:19;21.50;99.90
13336;DHT22;6737;51.480;11.962;2023-06-22T04:45:45;21.50;99.90
13336;DHT22;6737;51.480;11.962;2023-06-22T04:48:11;21.50;99.90
13336;DHT22;6737;51.480;11.962;2023-06-22T04:50:42;21.40;99.90
13336;DHT22;6737;51.480;11.962;2023-06-22T04:53:08;21.40;99.90
13336;DHT22;6737;51.480;11.962;2023-06-22T04:55:39;21.40;99.90
13336;DHT22;6737;51.480;11.962;2023-06-22T04:58:07;21.40;99.90
13336;DHT22;6737;51.480;11.962;2023-06-22T05:00:33;21.40;99.90
13336;DHT22;6737;51.480;11.962;2023-06-22T05:03:02;21.40;99.90
13336;DHT22;6737;51.480;11.962;2023-06-22T05:05:29;21.40;99.90
13336;DHT22;6737;51.480;11.962;2023-06-22T05:07:56;21.40;99.90
13336;DHT22;6737;51.480;11.962;2023-06-22T05:10:25;21.40;99.90
13336;DHT22;6737;51.480;11.962;2023-06-22T05:12:51;21.40;99.90
13336;DHT22;6737;51.480;11.962;2023-06-22T05:15:17;21.40;99.90
13336;DHT22;6737;51.480;11.962;2023-06-22T05:17:45;21.40;99.90
13336;DHT22;6737;51.480;11.962;2023-06-22T05:20:12;21.40;99.90
13336;DHT22;6737;51.480;11.962;2023-06-22T05:22:38;21.40;99.90
13336;DHT22;6737;51.480;11.962;2023-06-22T05:25:09;21.40;99.90
13336;DHT22;6737;51.480;11.962;2023-06-22T05:27:36;21.50;99.90
13336;DHT22;6737;51.480;11.962;2023-06-22T05:30:09;21.50;99.90
13336;DHT22;6737;51.480;11.962;2023-06-22T05:32:35;21.50;99.90
13336;DHT22;6737;51.480;11.962;2023-06-22T05:35:02;21.40;99.90
13336;DHT22;6737;51.480;11.962;2023-06-22T05:37:28;21.40;99.90
13336;DHT22;6737;51.480;11.962;2023-06-22T05:39:54;21.40;99.90
13336;DHT22;6737;51.480;11.962;2023-06-22T05:42:21;21.50;99.90
13336;DHT22;6737;51.480;11.962;2023-06-22T05:44:47;21.60;99.90
13336;DHT22;6737;51.480;11.962;2023-06-22T05:47:13;21.60;99.90
13336;DHT22;6737;51.480;11.962;2023-06-22T05:49:39;21.70;99.90
13336;DHT22;6737;51.480;11.962;2023-06-22T05:52:05;21.70;99.90
13336;DHT22;6737;51.480;11.962;2023-06-22T05:54:31;21.70;99.90
13336;DHT22;6737;51.480;11.962;2023-06-22T05:56:57;21.70;99.90
13336;DHT22;6737;51.480;11.962;2023-06-22T05:59:22;21.70;99.90
13336;DHT22;6737;51.480;11.962;2023-06-22T06:01:48;21.80;99.90
13336;DHT22;6737;51.480;11.962;2023-06-22T06:04:17;21.80;99.90
13336;DHT22;6737;51.480;11.962;2023-06-22T06:06:44;22.00;99.90
13336;DHT22;6737;51.480;11.962;2023-06-22T06:09:10;22.10;99.90
13336;DHT22;6737;51.480;11.962;2023-06-22T06:11:37;22.20;99.90
13336;DHT22;6737;51.480;11.962;2023-06-22T06:14:03;22.30;99.90
13336;DHT22;6737;51.480;11.962;2023-06-22T06:16:29;22.40;99.90
13336;DHT22;6737;51.480;11.962;2023-06-22T06:18:55;22.50;99.90
13336;DHT22;6737;51.480;11.962;2023-06-22T06:21:22;22.60;99.90
13336;DHT22;6737;51.480;11.962;2023-06-22T06:23:48;22.60;99.90
13336;DHT22;6737;51.480;11.962;2023-06-22T06:26:13;22.60;99.90
13336;DHT22;6737;51.480;11.962;2023-06-22T06:28:42;22.60;99.90
13336;DHT22;6737;51.480;11.962;2023-06-22T06:31:09;22.60;99.90
13336;DHT22;6737;51.480;11.962;2023-06-22T06:33:35;22.60;99.90
13336;DHT22;6737;51.480;11.962;2023-06-22T06:36:02;22.60;99.90
13336;DHT22;6737;51.480;11.962;2023-06-22T06:38:32;22.60;99.90
13336;DHT22;6737;51.480;11.962;2023-06-22T06:40:58;22.60;99.90
13336;DHT22;6737;51.480;11.962;2023-06-22T06:43:23;22.60;99.90
13336;DHT22;6737;51.480;11.962;2023-06-22T06:45:50;22.60;99.90
13336;DHT22;6737;51.480;11.962;2023-06-22T06:48:16;22.60;99.90
13336;DHT22;6737;51.480;11.962;2023-06-22T06:50:43;22.70;99.90
13336;DHT22;6737;51.480;11.962;2023-06-22T06:53:10;22.70;99.90
13336;DHT22;6737;51.480;11.962;2023-06-22T06:55:35;22.80;99.90
13336;DHT22;6737;51.480;11.962;2023-06-22T06:58:02;22.90;99.90
13336;DHT22;6737;51.480;11.962;2023-06-22T07:00:33;22.90;99.90
13336;DHT22;6737;51.480;11.962;2023-06-22T07:02:59;23.00;99.90
13336;DHT22;6737;51.480;11.962;2023-06-22T07:05:25;23.10;99.90
13336;DHT22;6737;51.480;11.962;2023-06-22T07:07:50;23.10;99.90
13336;DHT22;6737;51.480;11.962;2023-06-22T07:10:16;23.10;99.90
13336;DHT22;6737;51.480;11.962;2023-06-22T07:12:42;23.10;99.90
13336;DHT22;6737;51.480;11.962;2023-06-22T07:15:09;23.20;99.90
13336;DHT22;6737;51.480;11.962;2023-06-22T07:17:36;23.30;99.90
13336;DHT22;6737;51.480;11.962;2023-06-22T07:20:03;23.30;99.90
13336;DHT22;6737;51.480;11.962;2023-06-22T07:22:42;23.40;99.90
13336;DHT22;6737;51.480;11.962;2023-06-22T07:25:09;23.40;99.90
13336;DHT22;6737;51.480;11.962;2023-06-22T07:27:59;23.40;99.90
13336;DHT22;6737;51.480;11.962;2023-06-22T07:30:27;23.50;99.90
13336;DHT22;6737;51.480;11.962;2023-06-22T07:32:53;23.50;99.90
13336;DHT22;6737;51.480;11.962;2023-06-22T07:35:19;23.50;99.90
13336;DHT22;6737;51.480;11.962;2023-06-22T07:37:45;23.50;99.90
13336;DHT22;6737;51.480;11.962;2023-06-22T07:40:11;23.60;99.90
13336;DHT22;6737;51.480;11.962;2023-06-22T07:42:37;23.70;99.90
13336;DHT22;6737;51.480;11.962;2023-06-22T07:45:04;23.80;99.90
13336;DHT22;6737;51.480;11.962;2023-06-22T07:47:30;23.80;99.90
13336;DHT22;6737;51.480;11.962;2023-06-22T07:49:58;24.00;99.90
13336;DHT22;6737;51.480;11.962;2023-06-22T07:52:29;24.00;99.90
13336;DHT22;6737;51.480;11.962;2023-06-22T07:54:55;24.00;99.90
13336;DHT22;6737;51.480;11.962;2023-06-22T07:57:21;24.00;99.90
13336;DHT22;6737;51.480;11.962;2023-06-22T07:59:46;24.00;99.90
13336;DHT22;6737;51.480;11.962;2023-06-22T08:02:12;24.10;99.90
13336;DHT22;6737;51.480;11.962;2023-06-22T08:04:38;24.20;99.90
13336;DHT22;6737;51.480;11.962;2023-06-22T08:07:05;24.40;99.90
13336;DHT22;6737;51.480;11.962;2023-06-22T08:09:32;24.60;99.90
13336;DHT22;6737;51.480;11.962;2023-06-22T08:11:59;24.80;99.90
13336;DHT22;6737;51.480;11.962;2023-06-22T08:14:30;24.90;99.90
13336;DHT22;6737;51.480;11.962;2023-06-22T08:16:56;25.00;99.90
13336;DHT22;6737;51.480;11.962;2023-06-22T08:19:22;25.00;99.90
13336;DHT22;6737;51.480;11.962;2023-06-22T08:21:48;25.10;99.90
13336;DHT22;6737;51.480;11.962;2023-06-22T08:24:13;25.20;99.90
13336;DHT22;6737;51.480;11.962;2023-06-22T08:26:39;25.20;99.90
13336;DHT22;6737;51.480;11.962;2023-06-22T08:29:05;25.30;99.90
13336;DHT22;6737;51.480;11.962;2023-06-22T08:31:31;25.50;99.90
13336;DHT22;6737;51.480;11.962;2023-06-22T08:34:00;25.60;99.90
13336;DHT22;6737;51.480;11.962;2023-06-22T08:36:26;25.60;99.90
13336;DHT22;6737;51.480;11.962;2023-06-22T08:38:55;25.50;99.90
13336;DHT22;6737;51.480;11.962;2023-06-22T08:41:27;25.40;99.90
13336;DHT22;6737;51.480;11.962;2023-06-22T08:43:53;25.40;99.90
13336;DHT22;6737;51.480;11.962;2023-06-22T08:46:19;25.40;99.90
13336;DHT22;6737;51.480;11.962;2023-06-22T08:48:49;25.40;99.90
13336;DHT22;6737;51.480;11.962;2023-06-22T08:51:16;25.50;99.90
13336;DHT22;6737;51.480;11.962;2023-06-22T08:53:42;25.50;99.90
13336;DHT22;6737;51.480;11.962;2023-06-22T08:56:10;25.60;99.90
13336;DHT22;6737;51.480;11.962;2023-06-22T08:58:36;25.80;99.90
13336;DHT22;6737;51.480;11.962;2023-06-22T09:01:02;25.90;99.90
13336;DHT22;6737;51.480;11.962;2023-06-22T09:03:28;26.00;99.90
13336;DHT22;6737;51.480;11.962;2023-06-22T09:05:54;26.10;99.90
13336;DHT22;6737;51.480;11.962;2023-06-22T09:08:20;26.20;99.90
13336;DHT22;6737;51.480;11.962;2023-06-22T09:10:45;26.20;99.90
13336;DHT22;6737;51.480;11.962;2023-06-22T09:13:11;26.20;99.90
13336;DHT22;6737;51.480;11.962;2023-06-22T09:15:37;26.20;99.90
13336;DHT22;6737;51.480;11.962;2023-06-22T09:18:03;26.30;99.90
13336;DHT22;6737;51.480;11.962;2023-06-22T09:20:29;26.30;99.90
13336;DHT22;6737;51.480;11.962;2023-06-22T09:22:55;26.40;99.90
13336;DHT22;6737;51.480;11.962;2023-06-22T09:25:21;26.50;99.90
13336;DHT22;6737;51.480;11.962;2023-06-22T09:27:47;26.60;99.90
13336;DHT22;6737;51.480;11.962;2023-06-22T09:30:13;26.60;99.90
13336;DHT22;6737;51.480;11.962;2023-06-22T09:32:39;26.80;99.90
13336;DHT22;6737;51.480;11.962;2023-06-22T09:35:06;26.80;99.90
13336;DHT22;6737;51.480;11.962;2023-06-22T09:37:33;27.20;99.90
13336;DHT22;6737;51.480;11.962;2023-06-22T09:39:59;27.20;99.90
13336;DHT22;6737;51.480;11.962;2023-06-22T09:42:25;27.20;99.90
13336;DHT22;6737;51.480;11.962;2023-06-22T09:44:51;27.20;99.90
13336;DHT22;6737;51.480;11.962;2023-06-22T09:47:17;27.20;99.90
13336;DHT22;6737;51.480;11.962;2023-06-22T09:49:43;27.00;99.90
13336;DHT22;6737;51.480;11.962;2023-06-22T09:52:09;27.00;99.90
13336;DHT22;6737;51.480;11.962;2023-06-22T09:54:36;27.00;99.90
13336;DHT22;6737;51.480;11.962;2023-06-22T09:57:02;26.90;99.90
13336;DHT22;6737;51.480;11.962;2023-06-22T09:59:28;27.00;99.90
13336;DHT22;6737;51.480;11.962;2023-06-22T10:01:54;27.20;99.90
13336;DHT22;6737;51.480;11.962;2023-06-22T10:04:20;27.10;99.90
13336;DHT22;6737;51.480;11.962;2023-06-22T10:06:46;27.30;99.90
13336;DHT22;6737;51.480;11.962;2023-06-22T10:09:11;27.30;99.90
13336;DHT22;6737;51.480;11.962;2023-06-22T10:11:37;27.40;99.90
13336;DHT22;6737;51.480;11.962;2023-06-22T10:14:03;27.50;99.90
13336;DHT22;6737;51.480;11.962;2023-06-22T10:16:33;27.70;99.90
13336;DHT22;6737;51.480;11.962;2023-06-22T10:19:01;27.80;99.90
13336;DHT22;6737;51.480;11.962;2023-06-22T10:21:27;28.10;99.90
13336;DHT22;6737;51.480;11.962;2023-06-22T10:23:54;28.10;99.90
13336;DHT22;6737;51.480;11.962;2023-06-22T10:26:21;28.20;99.90
13336;DHT22;6737;51.480;11.962;2023-06-22T10:28:47;28.20;99.90
13336;DHT22;6737;51.480;11.962;2023-06-22T10:31:12;28.00;99.90
13336;DHT22;6737;51.480;11.962;2023-06-22T10:33:38;28.00;99.90
13336;DHT22;6737;51.480;11.962;2023-06-22T10:36:07;28.10;99.90
13336;DHT22;6737;51.480;11.962;2023-06-22T10:38:33;28.20;99.90
13336;DHT22;6737;51.480;11.962;2023-06-22T10:40:58;28.30;99.90
13336;DHT22;6737;51.480;11.962;2023-06-22T10:43:24;28.40;99.90
13336;DHT22;6737;51.480;11.962;2023-06-22T10:45:50;28.40;99.90
13336;DHT22;6737;51.480;11.962;2023-06-22T10:48:16;28.30;99.90
13336;DHT22;6737;51.480;11.962;2023-06-22T10:50:41;28.20;99.90
13336;DHT22;6737;51.480;11.962;2023-06-22T10:53:07;28.10;99.90
13336;DHT22;6737;51.480;11.962;2023-06-22T10:55:33;28.10;99.90
13336;DHT22;6737;51.480;11.962;2023-06-22T10:57:59;28.20;99.90
13336;DHT22;6737;51.480;11.962;2023-06-22T11:00:25;28.20;99.90
13336;DHT22;6737;51.480;11.962;2023-06-22T11:02:51;28.40;99.90
13336;DHT22;6737;51.480;11.962;2023-06-22T11:05:16;28.60;99.90
13336;DHT22;6737;51.480;11.962;2023-06-22T11:07:43;28.60;99.90
13336;DHT22;6737;51.480;11.962;2023-06-22T11:10:11;28.70;99.90
13336;DHT22;6737;51.480;11.962;2023-06-22T11:12:37;28.80;99.90
13336;DHT22;6737;51.480;11.962;2023-06-22T11:15:03;28.80;99.90
13336;DHT22;6737;51.480;11.962;2023-06-22T11:17:29;28.80;99.90
13336;DHT22;6737;51.480;11.962;2023-06-22T11:19:55;28.80;99.90
13336;DHT22;6737;51.480;11.962;2023-06-22T11:22:21;28.90;99.90
13336;DHT22;6737;51.480;11.962;2023-06-22T11:24:47;28.90;99.90
13336;DHT22;6737;51.480;11.962;2023-06-22T11:27:13;29.00;99.90
13336;DHT22;6737;51.480;11.962;2023-06-22T11:29:39;29.00;99.90
13336;DHT22;6737;51.480;11.962;2023-06-22T11:32:06;29.00;99.90
13336;DHT22;6737;51.480;11.962;2023-06-22T11:34:33;28.90;99.90
13336;DHT22;6737;51.480;11.962;2023-06-22T11:36:58;29.00;99.90
13336;DHT22;6737;51.480;11.962;2023-06-22T11:39:24;29.00;99.90
13336;DHT22;6737;51.480;11.962;2023-06-22T11:41:50;29.00;99.90
13336;DHT22;6737;51.480;11.962;2023-06-22T11:44:16;29.00;99.90
13336;DHT22;6737;51.480;11.962;2023-06-22T11:46:41;29.10;99.90
13336;DHT22;6737;51.480;11.962;2023-06-22T11:49:08;29.10;99.90
13336;DHT22;6737;51.480;11.962;2023-06-22T11:51:33;28.80;99.90
13336;DHT22;6737;51.480;11.962;2023-06-22T11:53:59;28.60;99.90
13336;DHT22;6737;51.480;11.962;2023-06-22T11:56:25;28.50;99.90
13336;DHT22;6737;51.480;11.962;2023-06-22T11:58:53;28.60;99.90
13336;DHT22;6737;51.480;11.962;2023-06-22T12:01:19;28.70;99.90
13336;DHT22;6737;51.480;11.962;2023-06-22T12:03:45;28.80;99.90
13336;DHT22;6737;51.480;11.962;2023-06-22T12:06:11;28.90;99.90
13336;DHT22;6737;51.480;11.962;2023-06-22T12:08:37;29.00;99.90
13336;DHT22;6737;51.480;11.962;2023-06-22T12:11:03;29.00;99.90
13336;DHT22;6737;51.480;11.962;2023-06-22T12:13:29;29.20;99.90
13336;DHT22;6737;51.480;11.962;2023-06-22T12:15:55;29.20;99.90
13336;DHT22;6737;51.480;11.962;2023-06-22T12:18:21;29.30;99.90
13336;DHT22;6737;51.480;11.962;2023-06-22T12:20:47;29.30;99.90
13336;DHT22;6737;51.480;11.962;2023-06-22T12:23:14;29.40;99.90
13336;DHT22;6737;51.480;11.962;2023-06-22T12:25:40;29.30;99.90
13336;DHT22;6737;51.480;11.962;2023-06-22T12:28:05;29.40;99.90
13336;DHT22;6737;51.480;11.962;2023-06-22T12:30:33;29.40;99.90
13336;DHT22;6737;51.480;11.962;2023-06-22T12:32:59;29.30;99.90
13336;DHT22;6737;51.480;11.962;2023-06-22T12:35:24;29.30;99.90
13336;DHT22;6737;51.480;11.962;2023-06-22T12:37:50;29.20;99.90
13336;DHT22;6737;51.480;11.962;2023-06-22T12:40:16;29.30;99.90
13336;DHT22;6737;51.480;11.962;2023-06-22T12:42:42;29.40;99.90
13336;DHT22;6737;51.480;11.962;2023-06-22T12:45:08;29.40;99.90
13336;DHT22;6737;51.480;11.962;2023-06-22T12:47:35;29.40;99.90
13336;DHT22;6737;51.480;11.962;2023-06-22T12:50:01;29.50;99.90
13336;DHT22;6737;51.480;11.962;2023-06-22T12:52:26;29.50;99.90
13336;DHT22;6737;51.480;11.962;2023-06-22T12:54:52;29.50;99.90
13336;DHT22;6737;51.480;11.962;2023-06-22T12:57:19;29.50;99.90
13336;DHT22;6737;51.480;11.962;2023-06-22T12:59:45;29.40;99.90
13336;DHT22;6737;51.480;11.962;2023-06-22T13:02:11;29.30;99.90
13336;DHT22;6737;51.480;11.962;2023-06-22T13:04:37;29.20;99.90
13336;DHT22;6737;51.480;11.962;2023-06-22T13:07:03;29.20;99.90
13336;DHT22;6737;51.480;11.962;2023-06-22T13:09:29;29.30;99.90
13336;DHT22;6737;51.480;11.962;2023-06-22T13:11:55;29.30;99.90
13336;DHT22;6737;51.480;11.962;2023-06-22T13:14:20;29.20;99.90
13336;DHT22;6737;51.480;11.962;2023-06-22T13:16:46;29.30;99.90
13336;DHT22;6737;51.480;11.962;2023-06-22T13:19:12;29.40;99.90
13336;DHT22;6737;51.480;11.962;2023-06-22T13:21:38;29.50;99.90
13336;DHT22;6737;51.480;11.962;2023-06-22T13:24:04;29.30;99.90
13336;DHT22;6737;51.480;11.962;2023-06-22T13:26:31;29.30;99.90
13336;DHT22;6737;51.480;11.962;2023-06-22T13:28:58;29.20;99.90
13336;DHT22;6737;51.480;11.962;2023-06-22T13:31:24;29.40;99.90
13336;DHT22;6737;51.480;11.962;2023-06-22T13:33:49;29.50;99.90
13336;DHT22;6737;51.480;11.962;2023-06-22T13:36:18;29.70;99.90
13336;DHT22;6737;51.480;11.962;2023-06-22T13:38:44;29.60;99.90
13336;DHT22;6737;51.480;11.962;2023-06-22T13:41:10;29.60;99.90
13336;DHT22;6737;51.480;11.962;2023-06-22T13:43:36;29.60;99.90
13336;DHT22;6737;51.480;11.962;2023-06-22T13:46:02;29.60;99.90
13336;DHT22;6737;51.480;11.962;2023-06-22T13:48:28;29.60;99.90
13336;DHT22;6737;51.480;11.962;2023-06-22T13:50:54;29.60;99.90
13336;DHT22;6737;51.480;11.962;2023-06-22T13:53:20;29.50;99.90
13336;DHT22;6737;51.480;11.962;2023-06-22T13:55:46;29.50;99.90
13336;DHT22;6737;51.480;11.962;2023-06-22T13:58:13;29.40;99.90
13336;DHT22;6737;51.480;11.962;2023-06-22T14:00:39;29.50;99.90
13336;DHT22;6737;51.480;11.962;2023-06-22T14:03:04;29.50;99.90
13336;DHT22;6737;51.480;11.962;2023-06-22T14:05:30;29.40;99.90
13336;DHT22;6737;51.480;11.962;2023-06-22T14:07:56;29.40;99.90
13336;DHT22;6737;51.480;11.962;2023-06-22T14:10:22;29.30;99.90
13336;DHT22;6737;51.480;11.962;2023-06-22T14:12:48;29.30;99.90
13336;DHT22;6737;51.480;11.962;2023-06-22T14:15:14;29.20;99.90
13336;DHT22;6737;51.480;11.962;2023-06-22T14:17:40;29.00;99.90
13336;DHT22;6737;51.480;11.962;2023-06-22T14:20:06;29.00;99.90
13336;DHT22;6737;51.480;11.962;2023-06-22T14:22:34;28.90;99.90
13336;DHT22;6737;51.480;11.962;2023-06-22T14:25:01;28.90;99.90
13336;DHT22;6737;51.480;11.962;2023-06-22T14:27:27;29.00;99.90
13336;DHT22;6737;51.480;11.962;2023-06-22T14:29:53;28.90;99.90
13336;DHT22;6737;51.480;11.962;2023-06-22T14:32:18;28.90;99.90
13336;DHT22;6737;51.480;11.962;2023-06-22T14:34:44;29.00;99.90
13336;DHT22;6737;51.480;11.962;2023-06-22T14:37:10;29.10;99.90
13336;DHT22;6737;51.480;11.962;2023-06-22T14:39:38;29.10;99.90
13336;DHT22;6737;51.480;11.962;2023-06-22T14:42:05;29.10;99.90
13336;DHT22;6737;51.480;11.962;2023-06-22T14:44:31;29.20;99.90
13336;DHT22;6737;51.480;11.962;2023-06-22T14:46:57;29.10;99.90
13336;DHT22;6737;51.480;11.962;2023-06-22T14:49:23;29.10;99.90
13336;DHT22;6737;51.480;11.962;2023-06-22T14:51:49;29.00;99.90
13336;DHT22;6737;51.480;11.962;2023-06-22T14:54:15;29.00;99.90
13336;DHT22;6737;51.480;11.962;2023-06-22T14:56:41;29.00;99.90
13336;DHT22;6737;51.480;11.962;2023-06-22T14:59:08;29.00;99.90
13336;DHT22;6737;51.480;11.962;2023-06-22T15:01:34;29.10;99.90
13336;DHT22;6737;51.480;11.962;2023-06-22T15:03:59;29.10;99.90
13336;DHT22;6737;51.480;11.962;2023-06-22T15:06:26;29.20;99.90
13336;DHT22;6737;51.480;11.962;2023-06-22T15:08:53;29.20;99.90
13336;DHT22;6737;51.480;11.962;2023-06-22T15:11:19;29.20;99.90
13336;DHT22;6737;51.480;11.962;2023-06-22T15:13:45;29.20;99.90
13336;DHT22;6737;51.480;11.962;2023-06-22T15:16:11;29.20;99.90
13336;DHT22;6737;51.480;11.962;2023-06-22T15:18:37;29.20;99.90
13336;DHT22;6737;51.480;11.962;2023-06-22T15:21:03;29.20;99.90
13336;DHT22;6737;51.480;11.962;2023-06-22T15:23:30;29.20;99.90
13336;DHT22;6737;51.480;11.962;2023-06-22T15:25:58;29.20;99.90
13336;DHT22;6737;51.480;11.962;2023-06-22T15:28:24;29.30;99.90
13336;DHT22;6737;51.480;11.962;2023-06-22T15:30:50;29.30;99.90
13336;DHT22;6737;51.480;11.962;2023-06-22T15:33:18;29.20;99.90
13336;DHT22;6737;51.480;11.962;2023-06-22T15:35:44;29.20;99.90
13336;DHT22;6737;51.480;11.962;2023-06-22T15:38:10;29.10;99.90